Terminal Aerodrome Forecast
Issued by NWS Sterling, VA

Current Version | Previous Version | Text Only | Print | Product List | Glossary Off
Versions: 1 2 3 4 5 6 7 8 9 10 11 12 13 14 15 16 17 18 19 20 21

000
FTUS41 KLWX 231100
TAFIAD
TAF
KIAD 231139Z 2312/2418 31012G22KT P6SM BKN060
     FM231300 31020G30KT P6SM SCT060
     FM232200 32015G23KT P6SM SKC
     FM240400 31010KT P6SM SKC=

USA.gov is the U.S. government's official web portal to all federal, state and local government web resources and services.